createdAt,value
2022-08-17T00:01:30.076Z,17.76
2022-08-17T00:04:12.410Z,17.76
2022-08-17T00:06:43.672Z,17.77
2022-08-17T00:09:12.845Z,17.77
2022-08-17T00:12:34.650Z,17.77
2022-08-17T00:14:32.194Z,17.76
2022-08-17T00:16:59.007Z,17.76
2022-08-17T00:19:26.043Z,17.76
2022-08-17T00:22:31.047Z,17.74
2022-08-17T00:24:40.690Z,17.72
2022-08-17T00:27:08.160Z,17.70
2022-08-17T00:29:34.916Z,17.68
2022-08-17T00:33:23.148Z,17.66
2022-08-17T00:34:49.121Z,17.63
2022-08-17T00:37:15.864Z,17.58
2022-08-17T00:39:42.621Z,17.53
2022-08-17T00:42:17.484Z,17.49
2022-08-17T00:44:44.709Z,17.44
2022-08-17T00:47:11.478Z,17.41
2022-08-17T00:49:38.224Z,17.38
2022-08-17T00:52:11.886Z,17.35
2022-08-17T00:54:42.035Z,17.32
2022-08-17T00:57:17.685Z,17.30
2022-08-17T00:59:47.230Z,17.29
2022-08-17T01:02:29.913Z,17.28
2022-08-17T01:05:01.196Z,17.28
2022-08-17T01:07:27.992Z,17.27
2022-08-17T01:09:54.756Z,17.28
2022-08-17T01:12:21.640Z,17.28
2022-08-17T01:14:48.592Z,17.28
2022-08-17T01:17:15.344Z,17.28
2022-08-17T01:19:42.264Z,17.28
2022-08-17T01:22:09.016Z,17.29
2022-08-17T01:24:36.422Z,17.29
2022-08-17T01:27:03.834Z,17.30
2022-08-17T01:29:38.715Z,17.29
2022-08-17T01:32:07.464Z,17.28
2022-08-17T01:34:42.897Z,17.27
2022-08-17T01:37:12.250Z,17.26
2022-08-17T01:39:45.712Z,17.26
2022-08-17T01:42:20.931Z,17.25
2022-08-17T01:44:47.792Z,17.26
2022-08-17T01:47:15.006Z,17.26
2022-08-17T01:49:41.724Z,17.26
2022-08-17T01:52:10.107Z,17.26
2022-08-17T01:54:38.034Z,17.27
2022-08-17T01:57:06.070Z,17.27
2022-08-17T01:59:33.762Z,17.26
2022-08-17T02:02:00.576Z,17.24
2022-08-17T02:04:27.336Z,17.23
2022-08-17T02:06:54.650Z,17.22
2022-08-17T02:09:27.178Z,17.21
2022-08-17T02:11:59.437Z,17.20
2022-08-17T02:14:26.329Z,17.20
2022-08-17T02:16:53.422Z,17.19
2022-08-17T02:19:20.376Z,17.18
2022-08-17T02:21:49.070Z,17.19
2022-08-17T02:25:00.094Z,17.19
2022-08-17T02:27:09.259Z,17.19
2022-08-17T02:29:36.049Z,17.20
2022-08-17T02:32:03.294Z,17.19
2022-08-17T02:34:30.110Z,17.19
2022-08-17T02:36:56.830Z,17.18
2022-08-17T02:39:23.612Z,17.18
2022-08-17T02:41:50.493Z,17.17
2022-08-17T02:44:39.256Z,17.17
2022-08-17T02:47:04.394Z,17.16
2022-08-17T02:49:31.181Z,17.15
2022-08-17T02:51:58.496Z,17.13
2022-08-17T02:54:40.591Z,17.11
2022-08-17T02:57:09.973Z,17.10
2022-08-17T02:59:38.055Z,17.09
2022-08-17T03:02:06.668Z,17.09
2022-08-17T03:04:35.300Z,17.09
2022-08-17T03:07:02.979Z,17.08
2022-08-17T03:09:30.036Z,17.07
2022-08-17T03:12:08.442Z,17.06
2022-08-17T03:14:42.008Z,17.07
2022-08-17T03:17:17.267Z,17.08
2022-08-17T03:19:44.608Z,17.10
2022-08-17T03:22:36.294Z,17.13
2022-08-17T03:24:58.583Z,17.15
2022-08-17T03:27:25.518Z,17.18
2022-08-17T03:29:52.245Z,17.21
2022-08-17T03:32:20.726Z,17.23
2022-08-17T03:34:47.645Z,17.26
2022-08-17T03:37:15.396Z,17.30
2022-08-17T03:39:42.885Z,17.34
2022-08-17T03:42:31.456Z,17.39
2022-08-17T03:44:59.912Z,17.43
2022-08-17T03:47:45.466Z,17.48
2022-08-17T03:50:31.091Z,17.51
2022-08-17T03:53:16.596Z,17.55
2022-08-17T03:56:02.067Z,17.59
2022-08-17T03:58:28.803Z,17.60
2022-08-17T04:00:55.639Z,17.63
2022-08-17T04:03:22.343Z,17.65
2022-08-17T04:05:49.047Z,17.69
2022-08-17T04:08:15.778Z,17.71
2022-08-17T04:10:45.029Z,17.74
2022-08-17T04:13:12.178Z,17.78
2022-08-17T04:15:38.891Z,17.82
2022-08-17T04:18:07.458Z,17.86
2022-08-17T04:20:34.569Z,17.90
2022-08-17T04:23:12.479Z,17.96
2022-08-17T04:25:41.804Z,18.03
2022-08-17T04:28:16.047Z,18.10
2022-08-17T04:30:45.153Z,18.17
2022-08-17T04:33:25.582Z,18.24
2022-08-17T04:35:54.550Z,18.34
2022-08-17T04:38:24.424Z,18.42
2022-08-17T04:41:09.743Z,18.50
2022-08-17T04:44:39.277Z,18.63
2022-08-17T04:47:07.222Z,18.70
2022-08-17T04:49:39.712Z,18.81
2022-08-17T04:52:06.480Z,18.89
2022-08-17T04:54:33.215Z,18.98
2022-08-17T04:56:59.961Z,19.06
2022-08-17T04:59:26.704Z,19.16
2022-08-17T05:01:53.399Z,19.27
2022-08-17T05:04:33.765Z,19.41
2022-08-17T05:07:01.465Z,19.63
2022-08-17T05:09:29.051Z,19.86
2022-08-17T05:11:56.205Z,20.07
2022-08-17T05:14:33.752Z,20.31
2022-08-17T05:17:01.375Z,20.56
2022-08-17T05:19:28.662Z,20.77
2022-08-17T05:21:55.384Z,20.99
2022-08-17T05:24:38.678Z,21.18
2022-08-17T05:27:08.806Z,21.39
2022-08-17T05:29:36.460Z,21.53
2022-08-17T05:32:38.224Z,21.69
2022-08-17T05:35:00.541Z,21.84
2022-08-17T05:37:27.550Z,21.95
2022-08-17T05:39:54.544Z,22.00
2022-08-17T05:42:21.499Z,22.03
2022-08-17T05:44:48.551Z,22.06
2022-08-17T05:47:15.279Z,22.14
2022-08-17T05:49:42.035Z,22.20
2022-08-17T05:52:30.536Z,22.29
2022-08-17T05:55:33.169Z,22.33
2022-08-17T05:58:18.510Z,22.42
2022-08-17T06:01:03.472Z,22.54
2022-08-17T06:03:52.824Z,22.63
2022-08-17T06:06:37.838Z,22.68
2022-08-17T06:09:10.553Z,22.73
2022-08-17T06:11:45.684Z,22.78
2022-08-17T06:14:27.219Z,22.83
2022-08-17T06:17:01.829Z,22.87
2022-08-17T06:19:55.816Z,22.90
2022-08-17T06:22:29.818Z,22.92
2022-08-17T06:25:01.043Z,22.85
2022-08-17T06:27:47.999Z,22.80
2022-08-17T06:30:28.674Z,22.79
2022-08-17T06:33:21.980Z,22.76
2022-08-17T06:36:33.345Z,22.71
2022-08-17T06:39:20.131Z,22.65
2022-08-17T06:42:05.699Z,22.62
2022-08-17T06:44:49.732Z,22.61
2022-08-17T06:47:28.503Z,22.63
2022-08-17T06:50:15.433Z,22.68
2022-08-17T06:52:48.794Z,22.68
2022-08-17T06:55:44.212Z,22.71
2022-08-17T06:58:15.838Z,22.75
2022-08-17T07:00:44.624Z,22.80
2022-08-17T07:03:14.057Z,22.82
2022-08-17T07:06:03.727Z,22.85
2022-08-17T07:08:51.365Z,22.88
2022-08-17T07:11:21.111Z,22.92
2022-08-17T07:14:29.352Z,22.99
2022-08-17T07:16:56.795Z,23.08
2022-08-17T07:19:25.577Z,23.13
2022-08-17T07:21:55.120Z,23.19
2022-08-17T07:24:43.334Z,23.26
2022-08-17T07:27:22.871Z,23.31
2022-08-17T07:30:23.267Z,23.36
2022-08-17T07:32:57.368Z,23.40
2022-08-17T07:35:31.376Z,23.45
2022-08-17T07:38:25.186Z,23.50
2022-08-17T07:41:02.644Z,23.59
2022-08-17T07:43:40.323Z,23.67
2022-08-17T07:46:59.006Z,23.74
2022-08-17T07:49:40.953Z,23.85
2022-08-17T07:52:48.422Z,23.89
2022-08-17T07:54:56.963Z,23.94
2022-08-17T07:57:30.566Z,24.02
2022-08-17T08:00:01.102Z,24.10
2022-08-17T08:02:38.716Z,24.15
2022-08-17T08:05:13.035Z,24.16
2022-08-17T08:08:17.575Z,24.19
2022-08-17T08:10:45.315Z,24.23
2022-08-17T08:13:14.612Z,24.24
2022-08-17T08:15:54.275Z,24.26
2022-08-17T08:18:55.015Z,24.28
2022-08-17T08:21:47.217Z,24.34
2022-08-17T08:24:19.647Z,24.36
2022-08-17T08:27:28.043Z,24.39
2022-08-17T08:29:55.160Z,24.42
2022-08-17T08:32:46.526Z,24.44
2022-08-17T08:35:14.323Z,24.49
2022-08-17T08:37:46.925Z,24.52
2022-08-17T08:40:25.504Z,24.58
2022-08-17T08:43:07.473Z,24.65
2022-08-17T08:45:42.419Z,24.72
2022-08-17T08:48:53.808Z,24.79
2022-08-17T08:51:51.868Z,24.85
2022-08-17T08:54:37.157Z,24.89
2022-08-17T08:57:26.454Z,24.92
2022-08-17T09:00:01.705Z,24.93
2022-08-17T09:02:51.622Z,24.93
2022-08-17T09:05:42.472Z,24.93
2022-08-17T09:08:27.222Z,24.97
2022-08-17T09:12:02.140Z,24.99
2022-08-17T09:14:31.338Z,25.04
2022-08-17T09:17:18.536Z,25.09
2022-08-17T09:19:51.234Z,25.12
2022-08-17T09:22:36.604Z,25.15
2022-08-17T09:25:17.469Z,25.17
2022-08-17T09:28:20.313Z,25.21
2022-08-17T09:30:49.988Z,25.24
2022-08-17T09:33:22.829Z,25.23
2022-08-17T09:35:53.862Z,25.27
2022-08-17T09:38:29.219Z,25.33
2022-08-17T09:41:09.971Z,25.38
2022-08-17T09:43:51.625Z,25.39
2022-08-17T09:46:22.165Z,25.41
2022-08-17T09:49:12.095Z,25.42
2022-08-17T09:51:42.173Z,25.46
2022-08-17T09:54:38.784Z,25.49
2022-08-17T09:57:31.049Z,25.56
2022-08-17T10:00:19.993Z,25.61
2022-08-17T10:03:00.545Z,25.61
2022-08-17T10:05:37.686Z,25.61
2022-08-17T10:08:25.772Z,25.59
2022-08-17T10:11:05.727Z,25.57
2022-08-17T10:14:01.803Z,25.57
2022-08-17T10:17:23.708Z,25.58
2022-08-17T10:19:57.583Z,25.57
2022-08-17T10:22:49.892Z,25.58
2022-08-17T10:25:53.965Z,25.61
2022-08-17T10:28:28.770Z,25.66
2022-08-17T10:31:16.614Z,25.68
2022-08-17T10:33:51.003Z,25.70
2022-08-17T10:36:23.088Z,25.73
2022-08-17T10:38:50.698Z,25.77
2022-08-17T10:41:31.503Z,25.79
2022-08-17T10:44:40.231Z,25.81
2022-08-17T10:46:57.643Z,25.83
2022-08-17T10:49:29.535Z,25.86
2022-08-17T10:52:35.427Z,25.91
2022-08-17T10:55:06.002Z,25.94
2022-08-17T10:57:33.938Z,25.96
2022-08-17T11:00:02.249Z,25.99
2022-08-17T11:02:38.664Z,26.03
2022-08-17T11:05:18.162Z,26.07
2022-08-17T11:08:19.018Z,26.10
2022-08-17T11:10:52.080Z,26.13
2022-08-17T11:14:14.003Z,26.12
2022-08-17T11:16:50.824Z,26.07
2022-08-17T11:19:26.428Z,26.03
2022-08-17T11:22:06.531Z,25.98
2022-08-17T11:24:37.754Z,25.94
2022-08-17T11:27:27.285Z,25.95
2022-08-17T11:30:02.497Z,25.99
2022-08-17T11:32:37.295Z,26.04
2022-08-17T11:35:21.995Z,26.08
2022-08-17T11:38:18.785Z,26.09
2022-08-17T11:41:03.686Z,26.09
2022-08-17T11:43:49.209Z,26.08
2022-08-17T11:46:54.774Z,26.05
2022-08-17T11:50:01.666Z,26.05
2022-08-17T11:52:36.563Z,26.04
2022-08-17T11:55:33.867Z,26.03
2022-08-17T11:58:01.762Z,26.02
2022-08-17T12:00:47.092Z,26.00
2022-08-17T12:03:32.357Z,25.99
2022-08-17T12:06:11.256Z,25.98
2022-08-17T12:08:43.397Z,25.96
2022-08-17T12:11:11.960Z,25.97
2022-08-17T12:13:44.651Z,26.00
2022-08-17T12:16:16.564Z,26.05
2022-08-17T12:18:59.310Z,26.07
2022-08-17T12:21:36.476Z,26.06
2022-08-17T12:24:05.297Z,26.04
2022-08-17T12:26:35.792Z,26.00
2022-08-17T12:29:18.504Z,25.98
2022-08-17T12:32:02.234Z,25.96
2022-08-17T12:34:36.058Z,25.93
2022-08-17T12:37:06.798Z,25.90
2022-08-17T12:39:34.014Z,25.87
2022-08-17T12:42:02.690Z,25.85
2022-08-17T12:44:34.988Z,25.83
2022-08-17T12:47:21.912Z,25.82
2022-08-17T12:49:53.439Z,25.79
2022-08-17T12:52:20.258Z,25.77
2022-08-17T12:55:00.070Z,25.75
2022-08-17T12:57:41.325Z,25.76
2022-08-17T13:00:10.816Z,25.78
2022-08-17T13:02:47.423Z,25.82
2022-08-17T13:05:20.878Z,25.87
2022-08-17T13:07:47.812Z,25.89
2022-08-17T13:10:28.665Z,25.93
2022-08-17T13:13:03.387Z,25.96
2022-08-17T13:15:35.252Z,25.96
2022-08-17T13:18:10.640Z,25.96
2022-08-17T13:20:37.368Z,25.96
2022-08-17T13:23:11.867Z,25.98
2022-08-17T13:25:39.152Z,25.99
2022-08-17T13:28:05.883Z,26.01
2022-08-17T13:30:33.577Z,26.03
2022-08-17T13:33:04.827Z,26.05
2022-08-17T13:35:47.127Z,26.06
2022-08-17T13:38:40.555Z,26.06
2022-08-17T13:41:07.574Z,26.07
2022-08-17T13:43:45.103Z,26.06
2022-08-17T13:46:22.749Z,26.06
2022-08-17T13:48:59.776Z,26.06
2022-08-17T13:51:31.645Z,26.07
2022-08-17T13:53:59.566Z,26.08
2022-08-17T13:57:02.608Z,26.09
2022-08-17T13:59:52.901Z,26.10
2022-08-17T14:02:21.030Z,26.15
2022-08-17T14:04:48.205Z,26.20
2022-08-17T14:07:16.078Z,26.27
2022-08-17T14:09:59.785Z,26.32
2022-08-17T14:12:28.496Z,26.37
2022-08-17T14:14:56.349Z,26.40
2022-08-17T14:17:23.918Z,26.42
2022-08-17T14:19:51.061Z,26.43
2022-08-17T14:22:31.872Z,26.42
2022-08-17T14:24:59.256Z,26.41
2022-08-17T14:27:28.203Z,26.40
2022-08-17T14:29:55.889Z,26.38
2022-08-17T14:32:25.438Z,26.36
2022-08-17T14:34:52.489Z,26.34
2022-08-17T14:37:19.818Z,26.30
2022-08-17T14:39:46.626Z,26.26
2022-08-17T14:42:15.014Z,26.21
2022-08-17T14:44:41.779Z,26.17
2022-08-17T14:47:15.032Z,26.14
2022-08-17T14:49:42.278Z,26.10
2022-08-17T14:52:09.858Z,26.07
2022-08-17T14:54:36.609Z,26.04
2022-08-17T14:57:26.117Z,26.02
2022-08-17T14:59:54.429Z,25.99
2022-08-17T15:02:29.260Z,25.96
2022-08-17T15:05:01.816Z,25.93
2022-08-17T15:07:30.893Z,25.91
2022-08-17T15:10:00.786Z,25.88
2022-08-17T15:12:32.293Z,25.87
2022-08-17T15:15:00.726Z,25.86
2022-08-17T15:17:27.534Z,25.85
2022-08-17T15:20:17.276Z,25.83
2022-08-17T15:22:44.672Z,25.81
2022-08-17T15:25:11.621Z,25.79
2022-08-17T15:27:39.074Z,25.79
2022-08-17T15:30:07.230Z,25.78
2022-08-17T15:32:35.632Z,25.77
2022-08-17T15:35:04.339Z,25.77
2022-08-17T15:37:32.115Z,25.75
2022-08-17T15:40:01.339Z,25.74
2022-08-17T15:42:29.284Z,25.73
2022-08-17T15:44:56.177Z,25.71
2022-08-17T15:47:23.252Z,25.70
2022-08-17T15:49:50.889Z,25.68
2022-08-17T15:52:18.858Z,25.65
2022-08-17T15:54:54.147Z,25.63
2022-08-17T15:57:21.192Z,25.60
2022-08-17T15:59:53.102Z,25.57
2022-08-17T16:03:13.252Z,25.55
2022-08-17T16:05:21.944Z,25.53
2022-08-17T16:07:51.374Z,25.51
2022-08-17T16:10:19.189Z,25.50
2022-08-17T16:12:47.259Z,25.48
2022-08-17T16:15:14.390Z,25.46
2022-08-17T16:17:41.569Z,25.45
2022-08-17T16:20:19.528Z,25.42
2022-08-17T16:22:48.127Z,25.40
2022-08-17T16:25:20.529Z,25.39
2022-08-17T16:27:48.900Z,25.38
2022-08-17T16:30:17.760Z,25.35
2022-08-17T16:32:45.066Z,25.33
2022-08-17T16:35:12.053Z,25.30
2022-08-17T16:37:40.417Z,25.25
2022-08-17T16:40:12.970Z,25.21
2022-08-17T16:42:39.822Z,25.19
2022-08-17T16:45:16.780Z,25.17
2022-08-17T16:47:43.889Z,25.15
2022-08-17T16:50:12.240Z,25.13
2022-08-17T16:52:39.036Z,25.10
2022-08-17T16:55:07.410Z,25.08
2022-08-17T16:57:35.040Z,25.05
2022-08-17T17:02:16.744Z,25.00
2022-08-17T17:04:52.426Z,24.92
2022-08-17T17:07:40.131Z,24.86
2022-08-17T17:10:13.342Z,24.75
2022-08-17T17:13:03.544Z,24.61
2022-08-17T17:15:28.820Z,24.48
2022-08-17T17:17:57.615Z,24.38
2022-08-17T17:20:31.297Z,24.28
2022-08-17T17:23:11.256Z,24.24
2022-08-17T17:25:41.424Z,24.21
2022-08-17T17:28:17.546Z,24.18
2022-08-17T17:30:55.080Z,24.12
2022-08-17T17:33:44.441Z,24.06
2022-08-17T17:36:38.343Z,23.96
2022-08-17T17:39:12.281Z,23.88
2022-08-17T17:41:44.405Z,23.79
2022-08-17T17:44:13.093Z,23.69
2022-08-17T17:46:48.563Z,23.59
2022-08-17T17:49:17.186Z,23.50
2022-08-17T17:52:14.403Z,23.43
2022-08-17T17:55:17.835Z,23.35
2022-08-17T17:57:49.416Z,23.27
2022-08-17T18:00:24.618Z,23.23
2022-08-17T18:02:52.768Z,23.16
2022-08-17T18:05:31.601Z,23.12
2022-08-17T18:08:34.173Z,23.06
2022-08-17T18:11:10.480Z,23.00
2022-08-17T18:13:50.643Z,22.93
2022-08-17T18:16:19.269Z,22.88
2022-08-17T18:18:46.859Z,22.83
2022-08-17T18:21:16.732Z,22.77
2022-08-17T18:23:48.303Z,22.71
2022-08-17T18:26:34.233Z,22.66
2022-08-17T18:29:01.589Z,22.61
2022-08-17T18:31:28.523Z,22.57
2022-08-17T18:34:36.039Z,22.52
2022-08-17T18:37:04.675Z,22.47
2022-08-17T18:39:31.560Z,22.42
2022-08-17T18:41:59.671Z,22.36
2022-08-17T18:44:45.663Z,22.32
2022-08-17T18:47:12.608Z,22.27
2022-08-17T18:49:39.802Z,22.21
2022-08-17T18:52:13.061Z,22.18
2022-08-17T18:54:40.130Z,22.15
2022-08-17T18:57:07.666Z,22.10
2022-08-17T18:59:44.179Z,22.05
2022-08-17T19:02:27.358Z,22.02
2022-08-17T19:05:37.491Z,22.00
2022-08-17T19:08:28.796Z,21.95
2022-08-17T19:11:01.449Z,21.91
2022-08-17T19:13:32.268Z,21.88
2022-08-17T19:16:20.245Z,21.84
2022-08-17T19:18:56.214Z,21.81
2022-08-17T19:21:34.363Z,21.76
2022-08-17T19:24:21.159Z,21.72
2022-08-17T19:27:41.647Z,21.67
2022-08-17T19:30:14.501Z,21.63
2022-08-17T19:32:41.371Z,21.61
2022-08-17T19:35:13.619Z,21.59
2022-08-17T19:37:50.539Z,21.57
2022-08-17T19:40:51.683Z,21.53
2022-08-17T19:44:09.268Z,21.48
2022-08-17T19:47:12.981Z,21.42
2022-08-17T19:50:13.724Z,21.38
2022-08-17T19:52:46.579Z,21.33
2022-08-17T19:55:20.759Z,21.28
2022-08-17T19:57:47.843Z,21.23
2022-08-17T20:00:16.007Z,21.20
2022-08-17T20:03:16.390Z,21.17
2022-08-17T20:06:11.438Z,21.15
2022-08-17T20:08:40.642Z,21.13
2022-08-17T20:11:32.520Z,21.09
2022-08-17T20:14:07.130Z,21.07
2022-08-17T20:16:34.321Z,21.05
2022-08-17T20:19:01.172Z,21.03
2022-08-17T20:21:34.050Z,21.01
2022-08-17T20:24:22.549Z,20.97
2022-08-17T20:26:58.478Z,20.94
2022-08-17T20:29:40.108Z,20.90
2022-08-17T20:32:15.130Z,20.86
2022-08-17T20:34:44.569Z,20.84
2022-08-17T20:37:17.188Z,20.82
2022-08-17T20:40:04.059Z,20.79
2022-08-17T20:42:31.893Z,20.75
2022-08-17T20:45:02.559Z,20.72
2022-08-17T20:47:33.769Z,20.69
2022-08-17T20:50:36.667Z,20.65
2022-08-17T20:53:09.021Z,20.63
2022-08-17T20:55:36.452Z,20.61
2022-08-17T20:58:29.943Z,20.58
2022-08-17T21:00:57.915Z,20.55
2022-08-17T21:03:26.606Z,20.53
2022-08-17T21:06:16.888Z,20.50
2022-08-17T21:08:53.346Z,20.47
2022-08-17T21:12:02.717Z,20.44
2022-08-17T21:14:31.100Z,20.42
2022-08-17T21:17:07.466Z,20.39
2022-08-17T21:19:44.458Z,20.36
2022-08-17T21:22:45.761Z,20.33
2022-08-17T21:25:15.573Z,20.31
2022-08-17T21:28:01.525Z,20.29
2022-08-17T21:30:28.232Z,20.26
2022-08-17T21:33:20.662Z,20.24
2022-08-17T21:35:48.792Z,20.21
2022-08-17T21:38:17.520Z,20.19
2022-08-17T21:40:46.015Z,20.19
2022-08-17T21:43:23.637Z,20.17
2022-08-17T21:46:08.983Z,20.15
2022-08-17T21:48:43.897Z,20.13
2022-08-17T21:51:21.144Z,20.13
2022-08-17T21:53:56.252Z,20.17
2022-08-17T21:56:33.302Z,20.21
2022-08-17T21:59:05.515Z,20.28
2022-08-17T22:01:36.553Z,20.35
2022-08-17T22:04:08.635Z,20.43
2022-08-17T22:06:36.836Z,20.50
2022-08-17T22:09:12.525Z,20.57
2022-08-17T22:12:00.560Z,20.65
2022-08-17T22:14:52.326Z,20.73
2022-08-17T22:17:25.210Z,20.81
2022-08-17T22:20:00.466Z,20.86
2022-08-17T22:22:34.679Z,20.91
2022-08-17T22:25:07.170Z,20.96
2022-08-17T22:27:46.054Z,21.00
2022-08-17T22:30:32.439Z,21.05
2022-08-17T22:32:59.675Z,21.07
2022-08-17T22:35:43.119Z,21.08
2022-08-17T22:38:18.951Z,21.09
2022-08-17T22:40:50.213Z,21.08
2022-08-17T22:43:18.273Z,21.08
2022-08-17T22:45:47.482Z,21.09
2022-08-17T22:48:16.952Z,21.09
2022-08-17T22:50:43.771Z,21.10
2022-08-17T22:53:34.380Z,21.11
2022-08-17T22:56:19.653Z,21.12
2022-08-17T22:59:13.433Z,21.12
2022-08-17T23:01:41.021Z,21.13
2022-08-17T23:04:12.857Z,21.14
2022-08-17T23:06:42.336Z,21.15
2022-08-17T23:09:09.291Z,21.17
2022-08-17T23:11:36.933Z,21.17
2022-08-17T23:14:16.438Z,21.17
2022-08-17T23:16:43.193Z,21.15
2022-08-17T23:19:11.124Z,21.13
2022-08-17T23:21:37.948Z,21.12
2022-08-17T23:24:05.292Z,21.11
2022-08-17T23:26:39.243Z,21.09
2022-08-17T23:29:06.744Z,21.07
2022-08-17T23:31:34.677Z,21.05
2022-08-17T23:34:01.943Z,21.02
2022-08-17T23:36:29.442Z,21.01
2022-08-17T23:38:56.756Z,20.99
2022-08-17T23:41:23.570Z,20.98
2022-08-17T23:43:51.596Z,20.97
2022-08-17T23:46:18.660Z,20.96
2022-08-17T23:48:45.842Z,20.93
2022-08-17T23:51:14.614Z,20.91
2022-08-17T23:53:46.254Z,20.90
2022-08-17T23:56:13.261Z,20.88
2022-08-17T23:58:42.196Z,20.83
